Time;durP1;ratioP1;P1;durP2;ratioP2;P2;SDS_P1;SDS_P2;PMS_P1;PMS_P2;Temp;Humidity;BMP_temperature;BMP_pressure;BME280_temperature;BME280_humidity;BME280_pressure;Samples;Min_cycle;Max_cycle;Signal;HPM_P1;HPM_P2
2021/06/02 00:00:09;;;;;;;5.70;3.55;;;12.00;98.20;;;;;;5045757;28;20048;-75
2021/06/02 00:02:54;;;;;;;6.82;3.78;;;12.00;99.90;;;;;;5051691;28;20056;-81
2021/06/02 00:05:22;;;;;;;6.70;3.60;;;12.10;99.90;;;;;;5045958;28;20045;-75
2021/06/02 00:07:50;;;;;;;5.97;3.70;;;12.00;99.20;;;;;;5051642;28;20398;-73
2021/06/02 00:10:19;;;;;;;6.05;4.18;;;11.90;99.80;;;;;;5034687;28;20044;-74
2021/06/02 00:12:47;;;;;;;4.85;3.90;;;11.80;99.90;;;;;;5042358;28;20030;-74
2021/06/02 00:15:13;;;;;;;4.07;3.60;;;11.60;99.90;;;;;;5047568;28;20421;-74
2021/06/02 00:17:39;;;;;;;6.55;3.75;;;11.50;99.90;;;;;;5051038;28;20028;-74
2021/06/02 00:20:08;;;;;;;4.22;3.80;;;11.50;99.90;;;;;;5051567;28;20041;-73
2021/06/02 00:22:34;;;;;;;6.38;3.65;;;11.40;99.90;;;;;;5033189;28;20033;-74
2021/06/02 00:25:00;;;;;;;6.22;3.92;;;11.30;99.90;;;;;;5032896;28;20033;-73
2021/06/02 00:27:29;;;;;;;4.15;3.70;;;11.30;99.90;;;;;;5042834;28;20382;-73
2021/06/02 00:29:55;;;;;;;5.95;4.43;;;11.20;99.90;;;;;;5034660;28;20041;-73
2021/06/02 00:32:22;;;;;;;4.93;3.53;;;11.20;99.90;;;;;;5034262;28;20033;-74
2021/06/02 00:34:49;;;;;;;6.68;4.15;;;11.20;99.90;;;;;;5048117;28;20049;-74
2021/06/02 00:37:15;;;;;;;4.72;3.97;;;11.30;99.90;;;;;;5051510;28;20347;-82
2021/06/02 00:39:48;;;;;;;5.50;3.95;;;11.50;99.90;;;;;;5033884;28;20383;-74
2021/06/02 00:42:15;;;;;;;4.57;4.07;;;11.60;99.90;;;;;;5047165;28;20040;-74
2021/06/02 00:44:42;;;;;;;4.68;3.25;;;11.60;99.90;;;;;;5049931;28;20045;-74
2021/06/02 00:47:08;;;;;;;4.05;3.15;;;11.60;99.90;;;;;;5051172;28;20045;-74
2021/06/02 00:49:34;;;;;;;4.25;3.70;;;11.60;99.90;;;;;;5030242;28;20045;-74
2021/06/02 00:52:06;;;;;;;4.05;3.65;;;11.50;99.90;;;;;;5032945;28;20025;-74
2021/06/02 00:54:37;;;;;;;5.07;3.85;;;11.40;99.90;;;;;;5043180;28;20041;-73
2021/06/02 00:57:03;;;;;;;;;;;11.30;99.90;;;;;;5033457;28;20402;-72
2021/06/02 00:59:35;;;;;;;7.35;3.88;;;11.30;99.90;;;;;;5049886;28;19908;-74
2021/06/02 01:02:02;;;;;;;4.22;3.80;;;11.30;99.90;;;;;;5037380;28;20026;-74
2021/06/02 01:04:29;;;;;;;5.68;4.35;;;11.20;99.90;;;;;;5049169;28;20033;-74
2021/06/02 01:06:57;;;;;;;6.13;4.38;;;11.10;99.90;;;;;;5052385;28;20033;-73
2021/06/02 01:09:25;;;;;;;5.00;4.50;;;11.00;99.90;;;;;;5049776;28;20447;-74
2021/06/02 01:11:52;;;;;;;4.22;3.70;;;11.00;99.90;;;;;;5037543;28;20033;-73
2021/06/02 01:14:21;;;;;;;5.15;3.88;;;11.00;99.90;;;;;;5034193;28;20395;-75
2021/06/02 01:16:48;;;;;;;4.90;3.80;;;10.90;99.90;;;;;;5052672;28;20051;-75
2021/06/02 01:19:19;;;;;;;4.25;3.72;;;10.70;99.90;;;;;;5051494;28;20056;-74
2021/06/02 01:22:02;;;;;;;5.40;4.20;;;10.60;99.90;;;;;;5035767;28;20048;-74
2021/06/02 01:24:31;;;;;;;5.38;4.38;;;10.60;99.90;;;;;;5033095;28;20044;-74
2021/06/02 01:27:00;;;;;;;5.43;4.30;;;10.50;99.90;;;;;;5035391;28;20395;-78
2021/06/02 01:29:28;;;;;;;6.68;4.55;;;10.40;99.90;;;;;;5037302;28;20339;-75
2021/06/02 01:32:22;;;;;;;7.30;4.53;;;10.40;99.90;;;;;;5035402;28;20033;-74
2021/06/02 01:35:25;;;;;;;5.00;4.50;;;10.40;99.90;;;;;;5044192;28;20076;-74
2021/06/02 01:38:00;;;;;;;4.68;3.95;;;10.30;99.90;;;;;;5048507;28;20037;-79
2021/06/02 01:40:41;;;;;;;6.57;4.72;;;10.00;99.90;;;;;;5038396;28;20040;-74
2021/06/02 01:43:45;;;;;;;6.55;4.18;;;9.80;99.90;;;;;;5053931;28;20040;-74
2021/06/02 01:46:29;;;;;;;5.63;4.43;;;9.70;99.90;;;;;;5055023;28;20470;-74
2021/06/02 01:49:09;;;;;;;9.73;4.78;;;9.60;99.90;;;;;;5047900;28;20025;-75
2021/06/02 01:52:13;;;;;;;6.55;4.55;;;9.70;99.90;;;;;;5036028;28;20497;-74
2021/06/02 01:55:10;;;;;;;5.95;4.72;;;9.70;99.90;;;;;;5037430;28;20052;-74
2021/06/02 01:58:13;;;;;;;5.53;4.45;;;9.90;99.90;;;;;;5054429;28;20230;-74
2021/06/02 02:00:45;;;;;;;6.20;4.50;;;10.00;99.90;;;;;;5035958;28;20490;-81
2021/06/02 02:03:49;;;;;;;5.80;3.85;;;9.90;99.90;;;;;;5044902;28;20029;-79
2021/06/02 02:06:27;;;;;;;5.85;4.47;;;9.90;99.90;;;;;;5069941;28;20048;-74
2021/06/02 02:09:20;;;;;;;7.05;4.68;;;9.80;99.90;;;;;;5054291;28;20032;-75
2021/06/02 02:11:46;;;;;;;4.72;3.92;;;9.80;99.90;;;;;;5035625;28;20049;-75
2021/06/02 02:14:35;;;;;;;7.80;4.90;;;9.70;99.90;;;;;;5055527;28;20037;-74
2021/06/02 02:17:15;;;;;;;7.10;4.80;;;9.60;99.90;;;;;;5035606;28;20053;-78
2021/06/02 02:20:04;;;;;;;6.97;4.68;;;9.60;99.90;;;;;;5035435;28;20049;-76
2021/06/02 02:22:49;;;;;;;6.50;4.28;;;9.60;99.90;;;;;;5018036;28;20033;-74
2021/06/02 02:25:25;;;;;;;5.90;4.85;;;9.60;99.90;;;;;;5035515;28;20487;-74
2021/06/02 02:27:54;;;;;;;5.40;4.45;;;9.50;99.90;;;;;;5043741;28;20040;-74
2021/06/02 02:30:51;;;;;;;5.15;4.53;;;9.50;99.90;;;;;;5053926;28;20029;-75
2021/06/02 02:33:45;;;;;;;5.38;4.38;;;9.50;99.90;;;;;;5020051;28;20049;-85
2021/06/02 02:36:14;;;;;;;7.90;4.72;;;9.40;99.90;;;;;;5034017;28;20057;-79
2021/06/02 02:38:53;;;;;;;8.57;5.15;;;9.40;99.90;;;;;;5048724;28;20045;-75
2021/06/02 02:41:30;;;;;;;5.80;4.57;;;9.40;99.90;;;;;;5034881;28;20042;-77
2021/06/02 02:44:41;;;;;;;5.75;4.55;;;9.20;99.90;;;;;;5043504;28;20040;-75
2021/06/02 02:47:35;;;;;;;8.82;5.28;;;9.10;99.90;;;;;;5047452;28;20060;-75
2021/06/02 02:50:22;;;;;;;7.03;4.63;;;9.20;99.90;;;;;;5041835;28;20052;-75
2021/06/02 02:53:10;;;;;;;5.65;5.00;;;9.30;99.90;;;;;;5038633;28;20045;-75
2021/06/02 02:55:37;;;;;;;6.28;4.85;;;9.20;99.90;;;;;;5053801;28;20033;-75
2021/06/02 02:58:14;;;;;;;5.53;4.47;;;8.90;99.90;;;;;;5047196;28;20288;-79
2021/06/02 03:00:50;;;;;;;6.38;5.43;;;8.80;99.90;;;;;;5034705;28;20045;-75
2021/06/02 03:03:30;;;;;;;7.70;5.82;;;8.80;99.90;;;;;;5034701;28;20033;-75
2021/06/02 03:06:06;;;;;;;7.53;5.30;;;8.80;99.90;;;;;;5045171;28;20513;-75
2021/06/02 03:09:03;;;;;;;6.38;5.75;;;8.90;99.90;;;;;;5053319;28;20048;-75
2021/06/02 03:11:44;;;;;;;7.15;4.97;;;8.80;99.90;;;;;;5053327;28;20036;-75
2021/06/02 03:14:35;;;;;;;6.93;5.38;;;8.90;99.90;;;;;;5053320;28;20045;-75
2021/06/02 03:17:18;;;;;;;5.90;4.55;;;8.80;99.90;;;;;;5017604;28;20041;-75
2021/06/02 03:19:59;;;;;;;6.65;5.10;;;8.90;99.90;;;;;;5034908;28;20037;-75
2021/06/02 03:22:49;;;;;;;;;;;8.90;99.90;;;;;;5044844;28;20029;-75
2021/06/02 03:25:25;;;;;;;7.47;5.20;;;8.80;99.90;;;;;;5034714;28;20396;-75
2021/06/02 03:28:24;;;;;;;8.32;5.93;;;8.80;99.90;;;;;;5052623;28;20036;-75
2021/06/02 03:31:02;;;;;;;12.80;5.90;;;8.90;99.90;;;;;;5041022;28;20037;-75
2021/06/02 03:33:49;;;;;;;8.02;5.50;;;9.10;99.90;;;;;;5052467;28;20041;-75
2021/06/02 03:36:34;;;;;;;7.57;5.63;;;9.00;99.90;;;;;;5052763;28;20044;-79
2021/06/02 03:39:26;;;;;;;10.80;6.05;;;8.90;99.90;;;;;;5043084;28;20029;-75
2021/06/02 03:42:19;;;;;;;8.80;5.32;;;8.80;99.90;;;;;;5034366;28;20033;-74
2021/06/02 03:45:07;;;;;;;8.57;6.70;;;8.80;99.90;;;;;;5033391;28;20057;-74
2021/06/02 03:48:24;;;;;;;8.07;5.60;;;8.70;99.90;;;;;;5033435;28;20405;-74
2021/06/02 03:51:02;;;;;;;7.15;6.00;;;8.50;99.90;;;;;;4993736;28;20052;-74
2021/06/02 03:54:02;;;;;;;7.88;6.15;;;8.70;99.90;;;;;;5052004;28;20037;-74
2021/06/02 03:56:37;;;;;;;7.27;6.40;;;8.80;99.90;;;;;;5033273;28;20493;-74
2021/06/02 03:59:27;;;;;;;8.57;6.40;;;8.70;99.90;;;;;;5043782;28;20048;-74
2021/06/02 04:01:59;;;;;;;8.25;6.28;;;8.80;99.90;;;;;;5036927;28;20039;-74
2021/06/02 04:04:28;;;;;;;5.95;5.35;;;8.90;99.90;;;;;;5045100;28;20422;-74
2021/06/02 04:07:21;;;;;;;7.28;5.32;;;9.00;99.90;;;;;;5045825;28;20051;-74
2021/06/02 04:10:26;;;;;;;7.90;6.05;;;9.10;99.90;;;;;;5037261;28;20033;-74
2021/06/02 04:13:29;;;;;;;8.65;5.72;;;9.10;99.90;;;;;;4969949;28;20067;-74
2021/06/02 04:16:08;;;;;;;6.57;5.55;;;9.20;99.90;;;;;;5052289;28;20029;-74
2021/06/02 04:18:36;;;;;;;7.97;5.57;;;9.30;99.90;;;;;;5038690;28;20383;-74
2021/06/02 04:21:04;;;;;;;6.03;5.00;;;9.50;99.90;;;;;;5045014;28;20386;-74
2021/06/02 04:23:33;;;;;;;7.45;4.30;;;10.30;99.90;;;;;;5040226;28;20033;-74
2021/06/02 04:26:01;;;;;;;5.07;4.05;;;11.40;99.90;;;;;;5051996;28;20044;-74
2021/06/02 04:28:31;;;;;;;4.45;3.42;;;12.40;98.20;;;;;;5040041;28;20052;-75
2021/06/02 04:31:03;;;;;;;4.88;4.03;;;12.50;94.60;;;;;;5033413;28;20022;-76
2021/06/02 04:33:32;;;;;;;4.65;3.90;;;12.50;95.20;;;;;;5032486;28;20052;-74
2021/06/02 04:35:59;;;;;;;7.35;3.72;;;13.30;91.60;;;;;;5040653;28;20037;-77
2021/06/02 04:38:26;;;;;;;8.15;4.72;;;14.00;88.10;;;;;;5051552;28;20035;-74
2021/06/02 04:40:53;;;;;;;4.85;3.75;;;14.30;84.30;;;;;;5051647;28;20029;-74
2021/06/02 04:43:20;;;;;;;5.60;3.55;;;15.00;80.10;;;;;;5034487;28;20588;-74
2021/06/02 04:46:07;;;;;;;4.32;3.08;;;15.50;76.70;;;;;;5051294;28;20466;-73
2021/06/02 04:48:34;;;;;;;4.57;3.63;;;15.70;74.90;;;;;;5051172;28;20045;-74
2021/06/02 04:51:21;;;;;;;5.07;3.40;;;16.40;71.50;;;;;;5048392;28;20491;-74
2021/06/02 04:54:07;;;;;;;6.13;3.63;;;16.70;69.40;;;;;;5038473;28;20045;-75
2021/06/02 04:57:03;;;;;;;4.40;3.67;;;16.30;69.90;;;;;;5051267;28;20048;-75
2021/06/02 04:59:38;;;;;;;5.90;3.42;;;16.70;70.20;;;;;;5035141;28;20037;-75
2021/06/02 05:02:26;;;;;;;4.60;3.85;;;17.80;66.00;;;;;;5049398;28;20040;-74
2021/06/02 05:05:36;;;;;;;5.63;3.92;;;17.80;65.90;;;;;;5051480;28;20037;-74
2021/06/02 05:08:36;;;;;;;5.20;3.90;;;18.10;65.10;;;;;;5040753;28;20039;-74
2021/06/02 05:11:08;;;;;;;;;;;18.80;62.80;;;;;;5034675;28;20052;-74
2021/06/02 05:13:55;;;;;;;4.88;3.97;;;19.30;61.50;;;;;;5050918;28;19912;-74
2021/06/02 05:16:50;;;;;;;4.03;3.67;;;18.80;61.70;;;;;;5051514;28;20029;-74
2021/06/02 05:22:56;;;;;;;4.30;3.90;;;19.30;60.60;;;;;;5032243;28;20140;-74
2021/06/02 05:26:11;;;;;;;4.88;3.63;;;20.30;58.20;;;;;;5046414;28;20042;-84
2021/06/02 05:28:37;;;;;;;4.45;3.67;;;20.00;58.40;;;;;;5050890;28;20400;-75
2021/06/02 05:31:22;;;;;;;5.13;3.65;;;19.10;61.00;;;;;;5050108;28;20037;-75
2021/06/02 05:34:30;;;;;;;5.57;3.72;;;19.30;60.20;;;;;;5033190;28;20055;-75
2021/06/02 05:37:21;;;;;;;5.10;4.00;;;19.20;60.00;;;;;;5055785;28;20064;-74
2021/06/02 05:40:15;;;;;;;4.03;3.63;;;19.00;60.80;;;;;;5066621;28;20025;-74
2021/06/02 05:42:50;;;;;;;6.50;3.67;;;19.10;60.10;;;;;;5035329;28;20378;-75
2021/06/02 05:45:29;;;;;;;5.43;3.40;;;19.40;59.50;;;;;;5041928;28;20029;-75
2021/06/02 05:48:27;;;;;;;3.43;3.13;;;19.90;58.80;;;;;;5040351;28;20037;-75
2021/06/02 05:51:11;;;;;;;7.03;3.35;;;20.80;56.20;;;;;;5050966;28;20041;-74
2021/06/02 05:54:06;;;;;;;5.32;3.83;;;21.60;54.40;;;;;;5050207;28;20040;-75
2021/06/02 05:56:51;;;;;;;5.30;3.28;;;21.00;55.60;;;;;;5032040;28;20033;-74
2021/06/02 05:59:54;;;;;;;4.25;2.90;;;21.00;55.50;;;;;;5044142;28;20056;-75
2021/06/02 06:02:58;;;;;;;5.22;3.40;;;21.10;55.10;;;;;;5032167;28;20467;-77
2021/06/02 06:05:47;;;;;;;4.05;3.28;;;21.40;54.50;;;;;;5021441;28;20049;-76
2021/06/02 06:08:51;;;;;;;4.05;3.65;;;22.30;53.50;;;;;;5050832;28;20033;-75
2021/06/02 06:11:58;;;;;;;4.40;2.90;;;22.20;53.40;;;;;;5036582;28;20033;-75
2021/06/02 06:14:52;;;;;;;6.05;3.10;;;22.00;54.10;;;;;;5050616;28;20029;-75
2021/06/02 06:17:55;;;;;;;4.78;2.97;;;21.90;53.80;;;;;;5031476;28;20050;-75
2021/06/02 06:20:48;;;;;;;3.85;3.15;;;21.70;54.30;;;;;;5034755;28;20034;-75
2021/06/02 06:23:31;;;;;;;4.47;2.80;;;21.70;54.00;;;;;;5005949;28;20045;-75
2021/06/02 06:26:18;;;;;;;4.05;3.00;;;21.50;56.00;;;;;;5051650;28;20037;-75
2021/06/02 06:28:50;;;;;;;4.68;2.72;;;22.60;53.40;;;;;;5046382;28;20048;-74
2021/06/02 06:31:21;;;;;;;3.33;3.03;;;23.20;53.50;;;;;;5037125;28;20044;-74
2021/06/02 06:33:50;;;;;;;3.08;2.28;;;24.60;50.20;;;;;;5054132;28;20049;-75
2021/06/02 06:36:23;;;;;;;4.65;3.45;;;23.80;49.50;;;;;;5053068;28;20052;-75
2021/06/02 06:39:02;;;;;;;4.82;2.30;;;24.90;48.10;;;;;;5054251;28;20048;-75
2021/06/02 06:41:30;;;;;;;4.55;2.80;;;25.90;48.20;;;;;;5052787;28;20037;-75
2021/06/02 06:43:58;;;;;;;4.47;1.90;;;26.20;45.30;;;;;;5053638;28;20509;-72
2021/06/02 06:46:26;;;;;;;3.72;2.30;;;25.80;45.30;;;;;;5053186;28;20047;-77
2021/06/02 06:48:56;;;;;;;3.70;2.60;;;24.80;46.10;;;;;;5034981;28;20029;-75
2021/06/02 06:51:27;;;;;;;4.65;2.40;;;25.70;45.40;;;;;;5038583;28;20381;-74
2021/06/02 06:53:56;;;;;;;3.67;2.55;;;27.10;44.70;;;;;;5053802;28;20025;-75
2021/06/02 06:56:24;;;;;;;5.82;2.22;;;26.70;43.30;;;;;;5036629;28;20036;-74
2021/06/02 06:58:51;;;;;;;7.60;2.58;;;26.40;42.70;;;;;;5052643;28;20025;-74
2021/06/02 07:01:18;;;;;;;5.75;3.03;;;23.60;46.00;;;;;;5045754;28;20045;-74
2021/06/02 07:03:45;;;;;;;3.05;2.40;;;23.70;46.80;;;;;;5047971;28;20036;-74
2021/06/02 07:06:13;;;;;;;6.68;2.33;;;25.10;45.20;;;;;;5034710;28;20037;-78
2021/06/02 07:08:46;;;;;;;4.57;2.22;;;26.20;43.80;;;;;;5034884;28;20034;-74
2021/06/02 07:11:17;;;;;;;8.15;2.33;;;26.10;43.50;;;;;;5050967;28;20371;-78
2021/06/02 07:13:45;;;;;;;4.95;2.50;;;27.10;41.40;;;;;;5054190;28;20048;-74
2021/06/02 07:16:14;;;;;;;6.63;2.27;;;27.50;40.70;;;;;;5047348;28;20474;-74
2021/06/02 07:18:44;;;;;;;4.93;2.42;;;27.20;40.20;;;;;;5035320;28;20040;-74
2021/06/02 07:21:12;;;;;;;4.72;2.10;;;28.20;39.50;;;;;;5052723;28;20036;-73
2021/06/02 07:23:39;;;;;;;5.53;2.08;;;28.70;38.60;;;;;;5052935;28;20033;-74
2021/06/02 07:26:06;;;;;;;8.73;2.45;;;28.60;38.60;;;;;;5053050;28;20032;-74
2021/06/02 07:28:40;;;;;;;4.53;2.30;;;27.80;39.10;;;;;;5040557;28;20044;-74
2021/06/02 07:31:08;;;;;;;5.07;2.30;;;27.70;38.80;;;;;;5033150;28;20045;-74
2021/06/02 07:33:36;;;;;;;3.83;1.97;;;28.00;38.80;;;;;;5035032;28;20053;-74
2021/06/02 07:36:03;;;;;;;4.38;2.13;;;27.90;37.50;;;;;;5052230;28;20044;-74
2021/06/02 07:38:29;;;;;;;4.72;2.50;;;27.10;36.50;;;;;;5052432;28;20045;-74
2021/06/02 07:40:56;;;;;;;5.90;1.70;;;26.80;37.60;;;;;;5052728;28;20040;-74
2021/06/02 07:43:22;;;;;;;3.17;2.10;;;26.90;37.70;;;;;;5041213;28;20041;-78
2021/06/02 07:45:49;;;;;;;4.75;1.67;;;26.70;37.50;;;;;;5052278;28;20032;-73
2021/06/02 07:48:15;;;;;;;6.18;2.00;;;26.40;38.00;;;;;;5040591;28;20041;-73
2021/06/02 07:50:42;;;;;;;6.38;1.92;;;27.00;37.10;;;;;;5044675;28;20044;-74
2021/06/02 07:53:08;;;;;;;3.95;1.95;;;26.00;37.90;;;;;;5052432;28;20033;-73
2021/06/02 07:55:34;;;;;;;3.33;1.63;;;26.00;38.00;;;;;;5051490;28;20045;-74
2021/06/02 07:58:01;;;;;;;2.88;1.75;;;26.80;37.60;;;;;;5039183;28;20040;-74
2021/06/02 08:00:27;;;;;;;2.90;1.67;;;27.20;39.00;;;;;;5040473;28;20360;-76
2021/06/02 08:02:53;;;;;;;2.70;1.55;;;28.00;38.10;;;;;;5052022;28;20493;-74
2021/06/02 08:05:19;;;;;;;4.43;1.60;;;28.10;36.40;;;;;;5052441;28;20033;-75
2021/06/02 08:07:47;;;;;;;5.45;1.60;;;28.00;36.70;;;;;;5050991;28;20382;-74
2021/06/02 08:10:15;;;;;;;3.72;1.38;;;27.20;37.30;;;;;;5045120;28;20096;-74
2021/06/02 08:12:42;;;;;;;3.33;1.80;;;28.10;36.80;;;;;;5015116;28;20045;-74
2021/06/02 08:15:11;;;;;;;7.20;1.92;;;27.40;36.30;;;;;;5033614;28;20026;-74
2021/06/02 08:17:39;;;;;;;3.72;1.55;;;28.30;35.50;;;;;;5041151;28;20040;-74
2021/06/02 08:20:07;;;;;;;5.20;1.88;;;27.50;36.20;;;;;;5036868;28;20036;-74
2021/06/02 08:22:34;;;;;;;2.27;1.40;;;27.40;36.10;;;;;;5032700;28;20052;-74
2021/06/02 08:25:09;;;;;;;4.82;1.30;;;27.00;36.70;;;;;;5043487;28;20044;-74
2021/06/02 08:27:35;;;;;;;3.08;1.63;;;27.90;36.80;;;;;;5037134;28;20057;-75
2021/06/02 08:30:03;;;;;;;3.63;1.52;;;27.90;35.40;;;;;;5034293;28;20052;-74
2021/06/02 08:32:29;;;;;;;4.63;1.60;;;27.00;36.00;;;;;;5051289;28;20035;-74
2021/06/02 08:34:55;;;;;;;4.47;1.38;;;27.30;36.00;;;;;;5050712;28;20371;-75
2021/06/02 08:37:22;;;;;;;2.50;1.42;;;27.70;36.70;;;;;;5051966;28;20039;-74
2021/06/02 08:39:48;;;;;;;4.60;1.50;;;28.70;34.70;;;;;;5034091;28;20034;-73
2021/06/02 08:42:15;;;;;;;3.70;1.77;;;28.30;35.60;;;;;;5046008;28;20482;-73
2021/06/02 08:44:43;;;;;;;2.60;1.42;;;28.40;34.50;;;;;;5050686;28;20041;-73
2021/06/02 08:47:09;;;;;;;2.92;1.30;;;28.00;34.20;;;;;;5051478;28;20457;-74
2021/06/02 08:49:36;;;;;;;3.35;1.30;;;27.80;34.40;;;;;;5041862;28;20039;-74
2021/06/02 08:52:05;;;;;;;4.18;1.95;;;27.80;35.50;;;;;;5040254;28;20467;-74
2021/06/02 08:54:31;;;;;;;3.05;1.33;;;27.20;34.00;;;;;;5051131;28;20032;-74
2021/06/02 08:57:01;;;;;;;3.13;1.20;;;27.70;34.40;;;;;;5051545;28;20032;-74
2021/06/02 08:59:28;;;;;;;3.83;1.40;;;27.50;35.00;;;;;;5050577;28;20379;-73
2021/06/02 09:01:54;;;;;;;4.15;1.48;;;28.30;34.60;;;;;;5042978;28;20057;-75
2021/06/02 09:04:21;;;;;;;1.73;0.90;;;29.20;33.80;;;;;;5063880;28;20497;-74
2021/06/02 09:06:48;;;;;;;1.90;1.15;;;28.40;34.50;;;;;;5047882;28;20035;-74
2021/06/02 09:09:15;;;;;;;3.15;0.82;;;28.30;34.60;;;;;;5033588;28;20451;-73
2021/06/02 09:11:44;;;;;;;5.07;1.20;;;28.70;34.30;;;;;;5047013;28;20036;-74
2021/06/02 09:14:27;;;;;;;2.15;1.38;;;29.20;34.60;;;;;;5051144;28;20032;-73
2021/06/02 09:17:00;;;;;;;3.03;1.45;;;28.60;34.30;;;;;;5050271;28;20041;-74
2021/06/02 09:19:39;;;;;;;2.33;1.25;;;29.10;34.80;;;;;;5051236;28;20470;-74
2021/06/02 09:22:08;;;;;;;4.38;1.60;;;29.70;33.50;;;;;;5050820;28;20093;-74
2021/06/02 09:24:57;;;;;;;4.05;1.30;;;29.10;33.30;;;;;;5035287;28;20041;-74
2021/06/02 09:27:45;;;;;;;1.92;1.15;;;28.10;33.10;;;;;;5033384;28;20048;-74
2021/06/02 09:30:19;;;;;;;3.85;1.35;;;28.30;33.50;;;;;;5032046;28;20034;-74
2021/06/02 09:32:48;;;;;;;1.63;1.13;;;28.50;33.10;;;;;;5035486;28;20490;-74
2021/06/02 09:35:15;;;;;;;3.65;0.80;;;28.80;34.20;;;;;;5050521;28;20037;-74
2021/06/02 09:37:57;;;;;;;1.98;1.20;;;29.10;32.90;;;;;;5042302;28;20048;-74
2021/06/02 09:40:26;;;;;;;6.07;1.27;;;28.70;34.30;;;;;;5032341;28;20029;-74
2021/06/02 09:42:53;;;;;;;1.77;0.98;;;29.00;33.80;;;;;;5032310;28;20025;-73
2021/06/02 09:45:19;;;;;;;2.92;1.33;;;29.10;33.90;;;;;;5032299;28;20037;-74
2021/06/02 09:47:54;;;;;;;2.35;0.90;;;29.20;34.50;;;;;;5046549;28;20056;-75
2021/06/02 09:50:32;;;;;;;4.35;1.50;;;29.10;33.90;;;;;;5036299;28;20043;-74
2021/06/02 09:53:01;;;;;;;2.03;1.00;;;29.70;34.10;;;;;;5050664;28;20033;-73
2021/06/02 09:55:35;;;;;;;6.70;1.77;;;27.90;34.10;;;;;;5040799;28;20057;-73
2021/06/02 09:58:01;;;;;;;2.10;1.17;;;27.60;35.00;;;;;;5044517;28;20049;-73
2021/06/02 10:00:28;;;;;;;6.65;1.75;;;28.70;33.90;;;;;;5054451;28;20029;-73
2021/06/02 10:03:15;;;;;;;3.80;1.15;;;28.30;33.60;;;;;;5053345;28;20451;-73
2021/06/02 10:05:45;;;;;;;2.78;1.40;;;27.90;34.60;;;;;;5053462;28;20049;-74
2021/06/02 10:08:28;;;;;;;1.60;1.20;;;27.80;34.20;;;;;;5029806;28;20048;-75
2021/06/02 10:10:55;;;;;;;3.03;1.15;;;28.40;34.40;;;;;;5034975;28;20041;-74
2021/06/02 10:13:27;;;;;;;2.05;1.13;;;28.60;34.00;;;;;;5035026;28;20359;-73
2021/06/02 10:15:53;;;;;;;8.63;1.88;;;28.50;35.00;;;;;;5035555;28;20028;-75
2021/06/02 10:18:27;;;;;;;1.85;1.40;;;28.90;34.20;;;;;;5035639;28;20088;-73
2021/06/02 10:21:02;;;;;;;2.33;1.30;;;27.40;33.40;;;;;;5041790;28;20045;-73
2021/06/02 10:23:31;;;;;;;3.28;1.40;;;27.20;33.70;;;;;;5054154;28;20382;-73
2021/06/02 10:25:58;;;;;;;1.70;1.13;;;27.10;33.20;;;;;;5052523;28;20048;-73
2021/06/02 10:28:25;;;;;;;2.17;1.30;;;26.10;33.40;;;;;;5049120;28;20040;-74
2021/06/02 10:30:53;;;;;;;2.33;1.60;;;25.40;35.20;;;;;;5035113;28;20467;-73
2021/06/02 10:33:19;;;;;;;2.20;1.50;;;25.30;35.10;;;;;;5041967;28;20046;-74
2021/06/02 10:35:45;;;;;;;3.17;2.00;;;25.40;36.60;;;;;;5053817;28;20037;-75
2021/06/02 10:38:13;;;;;;;3.20;1.48;;;25.60;35.70;;;;;;5046743;28;20036;-74
2021/06/02 10:40:41;;;;;;;2.72;1.50;;;25.50;35.70;;;;;;5046542;28;20041;-78
2021/06/02 10:43:15;;;;;;;2.75;1.30;;;25.50;36.40;;;;;;5053483;28;20047;-75
2021/06/02 10:45:55;;;;;;;3.72;1.83;;;25.40;36.00;;;;;;5054470;28;20036;-74
2021/06/02 10:48:38;;;;;;;4.30;1.30;;;25.50;36.80;;;;;;5053108;28;20045;-75
2021/06/02 10:51:05;;;;;;;1.85;1.00;;;25.90;34.00;;;;;;5048377;28;20479;-75
2021/06/02 10:53:32;;;;;;;3.63;1.70;;;25.70;32.70;;;;;;5041026;28;20029;-82
2021/06/02 10:56:00;;;;;;;1.73;1.27;;;26.00;34.90;;;;;;5052359;28;20033;-76
2021/06/02 10:58:51;;;;;;;4.00;1.35;;;26.00;34.70;;;;;;5053608;28;20056;-76
2021/06/02 11:01:19;;;;;;;3.42;1.15;;;26.10;36.50;;;;;;5053576;28;20037;-75
2021/06/02 11:04:09;;;;;;;3.95;1.35;;;26.60;36.20;;;;;;5052265;28;20029;-75
2021/06/02 11:06:37;;;;;;;4.43;1.35;;;26.90;36.10;;;;;;5036996;28;20048;-75
2021/06/02 11:09:06;;;;;;;2.40;1.42;;;26.90;35.70;;;;;;5033653;28;20041;-75
2021/06/02 11:11:44;;;;;;;1.75;1.30;;;26.90;36.40;;;;;;5034366;28;20435;-80
2021/06/02 11:14:20;;;;;;;2.85;1.20;;;27.00;36.20;;;;;;5038987;28;20466;-74
2021/06/02 11:17:10;;;;;;;2.42;1.08;;;27.00;35.70;;;;;;5052740;28;20036;-74
2021/06/02 11:19:42;;;;;;;4.30;1.48;;;27.00;35.40;;;;;;5033706;28;20045;-76
2021/06/02 11:22:28;;;;;;;2.35;1.10;;;26.90;34.60;;;;;;5034177;28;20029;-75
2021/06/02 11:24:56;;;;;;;4.60;1.30;;;26.40;32.30;;;;;;5052256;28;20048;-75
2021/06/02 11:27:22;;;;;;;4.78;1.30;;;26.00;31.20;;;;;;5034531;28;20404;-75
2021/06/02 11:29:48;;;;;;;2.80;1.23;;;26.10;32.60;;;;;;5046116;28;20046;-75
2021/06/02 11:32:19;;;;;;;4.18;1.40;;;26.10;34.20;;;;;;5039282;28;20177;-76
2021/06/02 11:34:51;;;;;;;5.50;1.35;;;26.40;35.30;;;;;;5042688;28;20046;-76
2021/06/02 11:37:20;;;;;;;2.78;1.33;;;26.60;34.40;;;;;;5045385;28;20048;-76
2021/06/02 11:39:51;;;;;;;2.07;1.20;;;26.60;33.00;;;;;;5051655;28;20048;-76
2021/06/02 11:42:43;;;;;;;2.22;1.40;;;26.70;34.60;;;;;;5038626;28;20033;-78
2021/06/02 11:45:12;;;;;;;4.28;1.75;;;27.10;34.20;;;;;;5052019;28;20048;-76
2021/06/02 11:47:44;;;;;;;1.93;1.30;;;26.50;33.50;;;;;;5034965;28;20049;-76
2021/06/02 11:50:14;;;;;;;1.50;0.95;;;26.50;35.20;;;;;;5036238;28;20042;-75
2021/06/02 11:52:41;;;;;;;2.40;1.38;;;27.10;33.70;;;;;;5052536;28;20024;-77
2021/06/02 11:55:12;;;;;;;2.83;1.35;;;27.30;33.00;;;;;;5033471;28;20040;-74
2021/06/02 11:57:50;;;;;;;3.22;1.00;;;27.20;32.90;;;;;;5050330;28;20044;-74
2021/06/02 12:00:22;;;;;;;4.22;1.30;;;26.70;32.00;;;;;;5034054;28;20048;-75
2021/06/02 12:02:53;;;;;;;2.50;1.10;;;26.40;32.60;;;;;;5053100;28;20033;-73
2021/06/02 12:05:26;;;;;;;1.55;1.00;;;26.40;32.20;;;;;;5040032;28;20045;-73
2021/06/02 12:07:54;;;;;;;2.80;1.10;;;26.30;32.80;;;;;;5050213;28;20040;-75
2021/06/02 12:10:22;;;;;;;2.25;1.10;;;26.20;32.80;;;;;;5052016;28;20036;-74
2021/06/02 12:12:49;;;;;;;2.50;0.90;;;26.10;33.20;;;;;;5043378;28;20025;-74
2021/06/02 12:15:17;;;;;;;1.50;1.00;;;26.50;32.90;;;;;;5051847;28;20025;-74
2021/06/02 12:17:44;;;;;;;2.40;1.30;;;26.50;33.00;;;;;;5051831;28;20462;-75
2021/06/02 12:20:20;;;;;;;2.25;0.80;;;26.90;33.90;;;;;;5044629;28;20037;-75
2021/06/02 12:22:47;;;;;;;1.50;1.00;;;27.00;32.40;;;;;;5042413;28;20044;-74
2021/06/02 12:25:19;;;;;;;3.80;1.13;;;26.80;33.00;;;;;;5047440;28;20089;-74
2021/06/02 12:27:57;;;;;;;5.25;1.30;;;26.60;32.40;;;;;;5032503;28;20025;-74
2021/06/02 12:30:36;;;;;;;3.40;1.00;;;26.70;32.90;;;;;;5037469;28;20037;-74
2021/06/02 12:33:10;;;;;;;6.63;1.45;;;27.00;32.20;;;;;;5051952;28;20394;-74
2021/06/02 12:35:39;;;;;;;4.85;1.83;;;26.80;31.90;;;;;;5059152;28;20049;-74
2021/06/02 12:38:11;;;;;;;1.47;0.90;;;26.70;32.30;;;;;;5057758;28;20032;-75
2021/06/02 12:40:53;;;;;;;2.42;1.02;;;27.00;32.30;;;;;;5041505;28;20287;-75
2021/06/02 12:43:23;;;;;;;2.15;1.20;;;27.10;31.50;;;;;;5034228;28;20037;-74
2021/06/02 12:45:52;;;;;;;1.90;0.82;;;27.50;31.90;;;;;;5041216;28;20037;-74
2021/06/02 12:48:33;;;;;;;1.70;1.13;;;27.80;32.10;;;;;;5032495;28;20045;-74
2021/06/02 12:51:00;;;;;;;3.13;1.55;;;28.20;32.90;;;;;;5039882;28;20462;-74
2021/06/02 12:53:40;;;;;;;7.80;1.27;;;28.60;31.30;;;;;;5034009;28;20493;-74
2021/06/02 12:56:08;;;;;;;2.92;1.20;;;28.30;30.90;;;;;;5052539;28;20037;-74
2021/06/02 12:58:35;;;;;;;2.30;1.15;;;27.00;31.00;;;;;;5051226;28;20044;-74
2021/06/02 13:01:12;;;;;;;2.00;1.10;;;26.90;32.70;;;;;;5051229;28;20033;-74
2021/06/02 13:03:47;;;;;;;2.38;1.10;;;27.50;32.50;;;;;;5032230;28;20033;-74
2021/06/02 13:06:22;;;;;;;8.98;2.33;;;27.70;32.30;;;;;;5042136;28;20033;-74
2021/06/02 13:08:49;;;;;;;3.60;1.15;;;27.40;32.00;;;;;;5050792;28;20044;-73
2021/06/02 13:11:30;;;;;;;1.80;0.90;;;27.60;32.10;;;;;;5051229;28;20044;-74
2021/06/02 13:13:59;;;;;;;2.63;1.00;;;27.70;30.00;;;;;;5050910;28;20040;-72
2021/06/02 13:16:26;;;;;;;1.73;1.00;;;27.20;30.10;;;;;;5049959;28;20375;-75
2021/06/02 13:19:01;;;;;;;2.67;0.85;;;26.90;31.20;;;;;;5050791;28;20037;-73
2021/06/02 13:21:31;;;;;;;1.70;1.23;;;27.40;30.90;;;;;;5043967;28;20033;-74
2021/06/02 13:24:10;;;;;;;;;;;27.10;31.00;;;;;;5050307;28;20463;-73
2021/06/02 13:26:37;;;;;;;1.63;1.10;;;27.30;31.60;;;;;;5039523;28;19909;-81
2021/06/02 13:29:04;;;;;;;2.67;1.08;;;27.60;31.70;;;;;;5052351;28;20497;-74
2021/06/02 13:31:36;;;;;;;2.38;1.10;;;27.60;30.70;;;;;;5034218;28;20395;-74
2021/06/02 13:34:02;;;;;;;2.05;1.20;;;27.60;30.90;;;;;;5049914;28;22032;-74
2021/06/02 13:36:29;;;;;;;1.42;1.00;;;27.70;32.00;;;;;;5036370;28;20383;-74